Baranain, Spain
Current Conditions -  °F | °C
As of 3:00 PM on Monday 20 Oct 2014 (Local Time) from LEPP Reporting Station
Clear Clear  
Wind Chill: 75°   Ceiling: Unl
Heat Index: 75°   Visibility: 6mi
Dew Point: 54°   Wind: 1mph
Humidity: 47%   Direction: 300°WNW
Pressure: 30.18"   Gusts: NA
Location:  42.81°N, 1.68°W
Report Text: LEPP 201300Z 30001KT CAVOK 24/12 Q1022
Loading
Personal Weather Stations






























Interactive Weather Map
Tropical Storm Tracking
New forecast layout! Learn more

10-Day Weather Forecast

Advertisements
Track Severe Weather on mobile